Shady Grove, Florida
Current Conditions -  °F | °C
As of 2:15 PM on Friday 28 Nov 2014 (Local Time) from K40J Reporting Station
Clear Clear  
Wind Chill: 56°   Ceiling: Unl
Heat Index: 56°   Visibility: 10mi
Dew Point: 26°   Wind: 8mph
Humidity: 33%   Direction: 20°NNE
Pressure: 30.32"   Gusts: NA
Location:  30.29°N, 83.63°W
Report Text: K40J 281915Z AUTO 02007KT 10SM CLR 13/M03 A3032 RMK AO2 T01311031
Loading
Personal Weather Stations






























Interactive Weather Map New forecast layout! Learn more

10-Day Weather Forecast

Advertisements
Track Severe Weather on mobile